CMA CGM Kingfish — A8YW9 — position and weather

sailwx.info

Track history (hours):
 
Tides and Currents Weather Stations Pressure Air Temp Water Temp Dewpoint Dewpoint Depression Visibility Wind Speed Wind Dir Waves Ship Positions

CMA CGM Kingfish

Last reported at 2015-Jul-28 20:34 UTC. Time now 2015-Jul-29 13:33 UTC.
Position N 31°08' E 032°18'.

Length 294 m; draft 13.3 m.

Type: Ship (hazmat cat A). MMSI: 636015147.

Date/timePositionNaut miles runAvg speedWind from/ knotsBaromVisibWave heightAir tempDewpointWater temp
2015-Jul-28 20:34N 31°08' E 032°18'6 1.4
2015-Jul-28 16:17N 31°15' E 032°18'0 0.0
2015-Jul-28 15:08N 31°15' E 032°18'0 0.0
2015-Jul-28 13:33N 31°15' E 032°18'0 0.0
2015-Jul-27 21:25N 31°15' E 032°18'5 5.6
2015-Jul-27 20:33N 31°19' E 032°21'4 4.4
2015-Jul-27 19:33N 31°23' E 032°21'6 5.5
2015-Jul-27 18:29N 31°28' E 032°17'4414.7
2015-Jul-27 15:30N 31°53' E 031°35'86016.9
2015-Jul-25 12:33N 36°02' E 015°02'1716.9
2015-Jul-25 11:33N 36°07' E 014°42'1716.9
2015-Jul-25 10:33N 36°13' E 014°22'1716.9
2015-Jul-25 09:33N 36°20' E 014°03'1716.9
2015-Jul-25 08:33N 36°27' E 013°44'37616.4
2015-Jul-24 09:33N 37°17' E 005°58'14916.5
2015-Jul-24 00:29N 36°60' E 002°52'1516.5
2015-Jul-23 23:33N 36°57' E 002°33'1716.4
2015-Jul-23 22:32N 36°53' E 002°13'1616.5
2015-Jul-23 21:32N 36°50' E 001°52'1616.1
2015-Jul-23 20:33N 36°47' E 001°33'3516.2
2015-Jul-23 18:23N 36°42' E 000°49'1416.5
2015-Jul-23 17:33N 36°39' E 000°33'1716.5
2015-Jul-23 16:33N 36°37' E 000°12'2116.4
2015-Jul-23 15:16N 36°33' W 000°14'3016.5
2015-Jul-23 13:29N 36°28' W 000°50'1516.5
2015-Jul-23 12:32N 36°26' W 001°09'1616.6
2015-Jul-23 11:33N 36°23' W 001°29'29417.3
2015-Jul-22 18:32N 36°00' W 007°32'2417.6
2015-Jul-22 17:11N 36°03' W 008°02'6718.0
2015-Jul-22 13:27N 36°25' W 009°21'1718.5
2015-Jul-22 12:32N 36°32' W 009°39'1817.8
2015-Jul-22 11:31N 36°40' W 009°60'1817.2
2015-Jul-22 10:27N 36°45' W 010°22'2217.2
2015-Jul-22 09:10N 36°51' W 010°48'1817.1
2015-Jul-22 08:06N 36°57' W 011°10'1117.1
2015-Jul-22 07:28N 36°59' W 011°23'60017.0
2015-Jul-20 20:17N 39°18' W 023°45'15417.0
2015-Jul-20 11:14N 39°40' W 027°02'1317.0
2015-Jul-20 10:28N 39°42' W 027°19'1616.9
2015-Jul-20 09:29N 39°44' W 027°41'1617.0
2015-Jul-20 08:33N 39°46' W 028°01'1716.9
2015-Jul-20 07:34N 39°48' W 028°23'1716.8
2015-Jul-20 06:33N 39°50' W 028°45'1717.0
2015-Jul-20 05:33N 39°52' W 029°07'1716.9
2015-Jul-20 04:33N 39°54' W 029°28'1817.0
2015-Jul-20 03:29N 39°57' W 029°52'1916.9
2015-Jul-20 02:23N 39°58' W 030°16'1816.9
2015-Jul-20 01:21N 39°60' W 030°39'1417.1
2015-Jul-20 00:33N 40°00' W 030°57'1717.0
2015-Jul-19 23:33N 40°01' W 031°19'1716.9
2015-Jul-19 22:33N 40°03' W 031°41'2416.9
2015-Jul-19 21:07N 40°04' W 032°12'  
Track history (hours):
 
Tides and Currents Weather Stations Pressure Air Temp Water Temp Dewpoint Dewpoint Depression Visibility Wind Speed Wind Dir Waves Ship Positions

CMA CGM Kingfish

Last reported at 2015-Jul-28 20:34 UTC. Time now 2015-Jul-29 13:33 UTC.
Position N 31°08' E 032°18'.

Length 294 m; draft 13.3 m.

Type: Ship (hazmat cat A). MMSI: 636015147.

Date/timePositionNaut miles runAvg speedWind from/ knotsBaromVisibWave heightAir tempDewpointWater temp
2015-Jul-28 20:34N 31°08' E 032°18'6 1.4
2015-Jul-28 16:17N 31°15' E 032°18'0 0.0
2015-Jul-28 15:08N 31°15' E 032°18'0 0.0
2015-Jul-28 13:33N 31°15' E 032°18'0 0.0
2015-Jul-27 21:25N 31°15' E 032°18'5 5.6
2015-Jul-27 20:33N 31°19' E 032°21'4 4.4
2015-Jul-27 19:33N 31°23' E 032°21'6 5.5
2015-Jul-27 18:29N 31°28' E 032°17'4414.7
2015-Jul-27 15:30N 31°53' E 031°35'86016.9
2015-Jul-25 12:33N 36°02' E 015°02'1716.9
2015-Jul-25 11:33N 36°07' E 014°42'1716.9
2015-Jul-25 10:33N 36°13' E 014°22'1716.9
2015-Jul-25 09:33N 36°20' E 014°03'1716.9
2015-Jul-25 08:33N 36°27' E 013°44'37616.4
2015-Jul-24 09:33N 37°17' E 005°58'14916.5
2015-Jul-24 00:29N 36°60' E 002°52'1516.5
2015-Jul-23 23:33N 36°57' E 002°33'1716.4
2015-Jul-23 22:32N 36°53' E 002°13'1616.5
2015-Jul-23 21:32N 36°50' E 001°52'1616.1
2015-Jul-23 20:33N 36°47' E 001°33'3516.2
2015-Jul-23 18:23N 36°42' E 000°49'1416.5
2015-Jul-23 17:33N 36°39' E 000°33'1716.5
2015-Jul-23 16:33N 36°37' E 000°12'2116.4
2015-Jul-23 15:16N 36°33' W 000°14'3016.5
2015-Jul-23 13:29N 36°28' W 000°50'1516.5
2015-Jul-23 12:32N 36°26' W 001°09'1616.6
2015-Jul-23 11:33N 36°23' W 001°29'29417.3
2015-Jul-22 18:32N 36°00' W 007°32'2417.6
2015-Jul-22 17:11N 36°03' W 008°02'6718.0
2015-Jul-22 13:27N 36°25' W 009°21'1718.5
2015-Jul-22 12:32N 36°32' W 009°39'1817.8
2015-Jul-22 11:31N 36°40' W 009°60'1817.2
2015-Jul-22 10:27N 36°45' W 010°22'2217.2
2015-Jul-22 09:10N 36°51' W 010°48'1817.1
2015-Jul-22 08:06N 36°57' W 011°10'1117.1
2015-Jul-22 07:28N 36°59' W 011°23'60017.0
2015-Jul-20 20:17N 39°18' W 023°45'15417.0
2015-Jul-20 11:14N 39°40' W 027°02'1317.0
2015-Jul-20 10:28N 39°42' W 027°19'1616.9
2015-Jul-20 09:29N 39°44' W 027°41'1617.0
2015-Jul-20 08:33N 39°46' W 028°01'1716.9
2015-Jul-20 07:34N 39°48' W 028°23'1716.8
2015-Jul-20 06:33N 39°50' W 028°45'1717.0
2015-Jul-20 05:33N 39°52' W 029°07'1716.9
2015-Jul-20 04:33N 39°54' W 029°28'1817.0
2015-Jul-20 03:29N 39°57' W 029°52'1916.9
2015-Jul-20 02:23N 39°58' W 030°16'1816.9
2015-Jul-20 01:21N 39°60' W 030°39'1417.1
2015-Jul-20 00:33N 40°00' W 030°57'1717.0
2015-Jul-19 23:33N 40°01' W 031°19'1716.9
2015-Jul-19 22:33N 40°03' W 031°41'2416.9
2015-Jul-19 21:07N 40°04' W 032°12'  

Dump ship's entire track history